createdAt,value
2018-04-07T00:01:58.844Z,101687.96
2018-04-07T00:04:27.128Z,101694.17
2018-04-07T00:06:55.404Z,101694.45
2018-04-07T00:09:23.904Z,101686.05
2018-04-07T00:11:52.768Z,101682.97
2018-04-07T00:14:21.169Z,101693.53
2018-04-07T00:16:49.440Z,101681.33
2018-04-07T00:19:17.760Z,101685.77
2018-04-07T00:21:46.555Z,101680.23
2018-04-07T00:24:14.827Z,101676.09
2018-04-07T00:26:44.309Z,101677.08
2018-04-07T00:29:12.607Z,101669.03
2018-04-07T00:31:40.949Z,101669.03
2018-04-07T00:34:09.244Z,101664.88
2018-04-07T00:36:38.460Z,101668.59
2018-04-07T00:39:07.505Z,101659.52
2018-04-07T00:41:35.812Z,101659.41
2018-04-07T00:44:04.100Z,101660.37
2018-04-07T00:46:32.586Z,101663.36
2018-04-07T00:49:01.347Z,101648.36
2018-04-07T00:51:29.626Z,101652.75
2018-04-07T00:53:57.944Z,101652.80
2018-04-07T00:56:27.023Z,101649.42
2018-04-07T00:58:55.284Z,101652.41
2018-04-07T01:01:23.613Z,101649.07
2018-04-07T01:03:52.645Z,101645.38
2018-04-07T01:06:20.936Z,101644.14
2018-04-07T01:08:49.226Z,101632.34
2018-04-07T01:11:17.582Z,101626.95
2018-04-07T01:13:45.961Z,101632.87
2018-04-07T01:16:14.677Z,101624.33
2018-04-07T01:18:43.192Z,101629.36
2018-04-07T01:21:12.300Z,101627.52
2018-04-07T01:23:41.358Z,101611.23
2018-04-07T01:26:09.656Z,101618.04
2018-04-07T01:28:39.413Z,101609.15
2018-04-07T01:31:08.619Z,101607.31
2018-04-07T01:33:36.881Z,101611.02
2018-04-07T01:36:05.284Z,101611.23
2018-04-07T01:38:33.552Z,101607.30
2018-04-07T01:41:02.671Z,101609.54
2018-04-07T01:43:30.970Z,101607.84
2018-04-07T01:45:59.248Z,101600.75
2018-04-07T01:48:27.598Z,101604.40
2018-04-07T01:50:56.072Z,101606.84
2018-04-07T01:53:24.339Z,101605.31
2018-04-07T01:55:52.607Z,101608.97
2018-04-07T01:58:21.008Z,101600.58
2018-04-07T02:00:49.276Z,101594.02
2018-04-07T02:03:17.627Z,101592.46
2018-04-07T02:05:46.704Z,101591.01
2018-04-07T02:08:14.966Z,101590.77
2018-04-07T02:10:44.384Z,101585.30
2018-04-07T02:13:13.232Z,101581.20
2018-04-07T02:15:41.712Z,101574.70
2018-04-07T02:18:10.032Z,101571.38
2018-04-07T02:20:39.108Z,101572.41
2018-04-07T02:23:07.762Z,101576.41
2018-04-07T02:25:36.029Z,101575.56
2018-04-07T02:28:04.828Z,101578.25
2018-04-07T02:30:33.547Z,101573.95
2018-04-07T02:33:01.896Z,101573.31
2018-04-07T02:35:30.111Z,101588.23
2018-04-07T02:37:59.057Z,101583.55
2018-04-07T02:40:27.471Z,101584.84
2018-04-07T02:42:55.741Z,101590.28
2018-04-07T02:45:24.006Z,101589.67
2018-04-07T02:47:53.664Z,101582.52
2018-04-07T02:50:21.990Z,101587.16
2018-04-07T02:52:51.210Z,101595.00
2018-04-07T02:55:19.707Z,101589.97
2018-04-07T02:57:48.705Z,101592.39
2018-04-07T03:00:17.448Z,101585.95
2018-04-07T03:02:45.896Z,101587.31
2018-04-07T03:05:15.805Z,101585.97
2018-04-07T03:07:44.068Z,101584.22
2018-04-07T03:10:12.351Z,101584.72
2018-04-07T03:12:41.150Z,101587.36
2018-04-07T03:15:09.949Z,101585.57
2018-04-07T03:17:39.048Z,101595.18
2018-04-07T03:20:09.328Z,101595.22
2018-04-07T03:22:37.616Z,101594.91
2018-04-07T03:25:06.100Z,101594.59
2018-04-07T03:27:34.383Z,101594.79
2018-04-07T03:30:02.652Z,101595.56
2018-04-07T03:32:30.958Z,101594.77
2018-04-07T03:34:59.259Z,101588.86
2018-04-07T03:37:28.298Z,101590.20
2018-04-07T03:39:56.616Z,101579.22
2018-04-07T03:42:25.702Z,101576.23
2018-04-07T03:44:53.976Z,101576.09
2018-04-07T03:47:22.274Z,101574.66
2018-04-07T03:49:52.051Z,101585.50
2018-04-07T03:52:20.625Z,101579.19
2018-04-07T03:54:49.201Z,101583.83
2018-04-07T03:57:17.468Z,101587.23
2018-04-07T03:59:45.851Z,101584.77
2018-04-07T04:02:14.225Z,101582.51
2018-04-07T04:04:42.877Z,101575.41
2018-04-07T04:07:12.012Z,101576.74
2018-04-07T04:09:41.159Z,101572.27
2018-04-07T04:12:10.001Z,101572.36
2018-04-07T04:14:38.274Z,101572.79
2018-04-07T04:17:07.204Z,101567.69
2018-04-07T04:19:35.499Z,101565.09
2018-04-07T04:22:03.755Z,101558.09
2018-04-07T04:24:32.539Z,101558.28
2018-04-07T04:27:00.903Z,101556.44
2018-04-07T04:29:29.245Z,101547.27
2018-04-07T04:31:58.378Z,101545.13
2018-04-07T04:34:26.756Z,101543.14
2018-04-07T04:36:55.039Z,101549.74
2018-04-07T04:39:23.310Z,101540.80
2018-04-07T04:41:51.975Z,101538.54
2018-04-07T04:44:20.748Z,101539.86
2018-04-07T04:46:49.784Z,101530.20
2018-04-07T04:49:19.088Z,101528.88
2018-04-07T04:51:47.631Z,101519.03
2018-04-07T04:54:16.668Z,101518.55
2018-04-07T04:56:46.394Z,101510.44
2018-04-07T04:59:14.769Z,101503.77
2018-04-07T05:01:43.042Z,101503.34
2018-04-07T05:04:11.737Z,101511.42
2018-04-07T05:06:40.560Z,101500.67
2018-04-07T05:09:08.843Z,101500.20
2018-04-07T05:11:37.882Z,101502.25
2018-04-07T05:14:07.084Z,101490.45
2018-04-07T05:16:35.368Z,101489.52
2018-04-07T05:19:03.645Z,101493.64
2018-04-07T05:21:32.752Z,101477.02
2018-04-07T05:24:01.039Z,101484.39
2018-04-07T05:26:29.392Z,101480.05
2018-04-07T05:28:57.675Z,101480.98
2018-04-07T05:31:26.068Z,101476.84
2018-04-07T05:33:54.769Z,101469.87
2018-04-07T05:36:23.064Z,101473.23
2018-04-07T05:38:51.638Z,101461.77
2018-04-07T05:41:20.512Z,101461.48
2018-04-07T05:43:48.808Z,101464.39
2018-04-07T05:46:17.138Z,101460.22
2018-04-07T05:48:45.414Z,101458.77
2018-04-07T05:51:13.664Z,101456.71
2018-04-07T05:53:42.723Z,101454.02
2018-04-07T05:56:11.285Z,101445.42
2018-04-07T05:58:39.669Z,101453.38
2018-04-07T06:01:08.738Z,101444.56
2018-04-07T06:03:37.748Z,101432.23
2018-04-07T06:06:06.147Z,101431.36
2018-04-07T06:08:34.500Z,101432.29
2018-04-07T06:11:02.899Z,101432.26
2018-04-07T06:13:31.165Z,101434.13
2018-04-07T06:15:59.693Z,101422.89
2018-04-07T06:18:27.969Z,101420.63
2018-04-07T06:20:56.276Z,101418.19
2018-04-07T06:23:25.303Z,101416.37
2018-04-07T06:25:54.590Z,101413.02
2018-04-07T06:28:22.975Z,101417.32
2018-04-07T06:30:52.071Z,101411.52
2018-04-07T06:33:20.337Z,101411.38
2018-04-07T06:35:48.730Z,101406.55
2018-04-07T06:38:18.501Z,101403.80
2018-04-07T06:40:46.789Z,101407.67
2018-04-07T06:43:15.845Z,101403.61
2018-04-07T06:45:44.408Z,101399.19
2018-04-07T06:48:12.712Z,101401.66
2018-04-07T06:50:41.158Z,101400.21
2018-04-07T06:53:09.425Z,101399.91
2018-04-07T06:55:37.683Z,101395.91
2018-04-07T06:58:06.770Z,101393.25
2018-04-07T07:00:35.398Z,101400.28
2018-04-07T07:03:03.606Z,101392.34
2018-04-07T07:05:31.885Z,101398.00
2018-04-07T07:08:00.175Z,101395.67
2018-04-07T07:10:29.114Z,101388.64
2018-04-07T07:12:58.847Z,101391.38
2018-04-07T07:15:27.135Z,101389.45
2018-04-07T07:17:55.432Z,101383.66
2018-04-07T07:20:23.716Z,101389.67
2018-04-07T07:22:52.026Z,101392.80
2018-04-07T07:25:21.248Z,101388.31
2018-04-07T07:27:49.520Z,101388.75
2018-04-07T07:30:17.816Z,101386.84
2018-04-07T07:32:46.364Z,101378.98
2018-04-07T07:35:14.648Z,101381.31
2018-04-07T07:37:42.919Z,101373.22
2018-04-07T07:40:12.035Z,101371.00
2018-04-07T07:42:41.484Z,101366.23
2018-04-07T07:45:10.904Z,101361.38
2018-04-07T07:47:39.996Z,101352.88
2018-04-07T07:50:08.286Z,101343.23
2018-04-07T07:52:37.320Z,101341.23
2018-04-07T07:55:05.636Z,101335.98
2018-04-07T07:57:33.932Z,101334.27
2018-04-07T08:00:02.973Z,101331.80
2018-04-07T08:02:31.267Z,101336.09
2018-04-07T08:04:59.547Z,101344.05
2018-04-07T08:07:27.843Z,101348.87
2018-04-07T08:09:56.188Z,101348.98
2018-04-07T08:12:24.459Z,101335.95
2018-04-07T08:14:52.759Z,101339.00
2018-04-07T08:17:22.747Z,101332.42
2018-04-07T08:19:51.056Z,101334.28
2018-04-07T08:22:20.113Z,101339.84
2018-04-07T08:24:48.416Z,101332.03
2018-04-07T08:27:17.529Z,101331.63
2018-04-07T08:29:45.880Z,101332.63
2018-04-07T08:32:14.213Z,101330.70
2018-04-07T08:34:43.160Z,101317.73
2018-04-07T08:37:14.829Z,101304.14
2018-04-07T08:39:39.796Z,101313.41
2018-04-07T08:42:08.141Z,101311.81
2018-04-07T08:44:36.467Z,101286.52
2018-04-07T08:47:04.772Z,101292.44
2018-04-07T08:49:33.067Z,101305.67
2018-04-07T08:52:01.337Z,101288.20
2018-04-07T08:54:31.003Z,101287.87
2018-04-07T08:56:59.308Z,101279.61
2018-04-07T08:59:28.308Z,101280.83
2018-04-07T09:01:56.796Z,101278.81
2018-04-07T09:04:25.313Z,101273.47
2018-04-07T09:06:54.364Z,101268.50
2018-04-07T09:09:22.656Z,101269.44
2018-04-07T09:11:52.128Z,101261.96
2018-04-07T09:14:20.593Z,101251.07
2018-04-07T09:16:48.920Z,101259.48
2018-04-07T09:19:18.055Z,101261.17
2018-04-07T09:21:47.405Z,101256.63
2018-04-07T09:24:15.806Z,101252.94
2018-04-07T09:26:44.702Z,101243.42
2018-04-07T09:29:13.176Z,101241.42
2018-04-07T09:31:41.539Z,101222.22
2018-04-07T09:34:11.387Z,101223.15
2018-04-07T09:36:39.832Z,101222.73
2018-04-07T09:39:08.117Z,101222.77
2018-04-07T09:41:37.688Z,101214.82
2018-04-07T09:44:06.082Z,101214.00
2018-04-07T09:46:34.354Z,101209.80
2018-04-07T09:49:02.624Z,101200.62
2018-04-07T09:51:31.165Z,101211.92
2018-04-07T09:53:59.504Z,101216.48
2018-04-07T09:56:28.533Z,101206.03
2018-04-07T09:58:56.861Z,101211.89
2018-04-07T10:01:29.625Z,101206.04
2018-04-07T10:03:58.684Z,101211.05
2018-04-07T10:06:27.052Z,101208.14
2018-04-07T10:08:55.319Z,101203.53
2018-04-07T10:11:23.605Z,101211.04
2018-04-07T10:13:52.080Z,101208.95
2018-04-07T10:16:21.883Z,101206.41
2018-04-07T10:18:50.152Z,101200.55
2018-04-07T10:21:19.480Z,101208.45
2018-04-07T10:23:48.384Z,101202.63
2018-04-07T10:26:16.664Z,101205.98
2018-04-07T10:28:45.671Z,101210.98
2018-04-07T10:31:14.678Z,101189.13
2018-04-07T10:33:43.679Z,101198.70
2018-04-07T10:36:12.772Z,101199.09
2018-04-07T10:38:41.939Z,101198.63
2018-04-07T10:41:10.216Z,101208.64
2018-04-07T10:43:38.504Z,101200.28
2018-04-07T10:46:07.231Z,101202.38
2018-04-07T10:48:36.357Z,101193.56
2018-04-07T10:51:04.661Z,101197.69
2018-04-07T10:53:32.931Z,101191.80
2018-04-07T10:56:01.269Z,101198.60
2018-04-07T10:58:30.825Z,101194.80
2018-04-07T11:00:59.122Z,101198.55
2018-04-07T11:03:28.183Z,101190.97
2018-04-07T11:05:57.096Z,101198.01
2018-04-07T11:08:25.382Z,101193.22
2018-04-07T11:10:54.250Z,101210.25
2018-04-07T11:13:23.187Z,101187.17
2018-04-07T11:15:53.790Z,101179.26
2018-04-07T11:18:22.088Z,101183.45
2018-04-07T11:20:51.131Z,101179.60
2018-04-07T11:23:20.227Z,101173.65
2018-04-07T11:25:48.627Z,101171.52
2018-04-07T11:28:17.307Z,101168.16
2018-04-07T11:30:46.513Z,101157.91
2018-04-07T11:33:14.787Z,101154.88
2018-04-07T11:35:47.178Z,101146.94
2018-04-07T11:38:16.160Z,101150.68
2018-04-07T11:40:44.901Z,101139.52
2018-04-07T11:43:14.915Z,101136.05
2018-04-07T11:45:44.157Z,101140.70
2018-04-07T11:48:12.904Z,101133.68
2018-04-07T11:50:41.961Z,101133.18
2018-04-07T11:53:10.266Z,101116.29
2018-04-07T11:55:39.348Z,101118.81
2018-04-07T11:58:08.563Z,101114.19
2018-04-07T12:00:37.381Z,101116.20
2018-04-07T12:03:05.667Z,101116.45
2018-04-07T12:05:34.324Z,101120.34
2018-04-07T12:08:04.152Z,101114.25
2018-04-07T12:10:34.900Z,101122.09
2018-04-07T12:13:04.405Z,101116.83
2018-04-07T12:15:32.700Z,101117.78
2018-04-07T12:18:00.995Z,101112.27
2018-04-07T12:20:29.590Z,101106.44
2018-04-07T12:22:58.780Z,101109.98
2018-04-07T12:25:27.160Z,101104.25
2018-04-07T12:27:56.336Z,101103.30
2018-04-07T12:30:24.623Z,101098.01
2018-04-07T12:32:52.920Z,101095.70
2018-04-07T12:35:22.199Z,101095.16
2018-04-07T12:37:50.476Z,101097.38
2018-04-07T12:40:18.784Z,101088.63
2018-04-07T12:42:47.088Z,101089.12
2018-04-07T12:45:15.713Z,101083.25
2018-04-07T12:47:44.016Z,101083.16
2018-04-07T12:50:12.736Z,101066.12
2018-04-07T12:52:41.802Z,101065.89
2018-04-07T12:55:10.087Z,101044.77
2018-04-07T12:57:38.400Z,101048.43
2018-04-07T13:00:07.548Z,101039.43
2018-04-07T13:02:35.856Z,101027.67
2018-04-07T13:05:04.134Z,101029.58
2018-04-07T13:07:33.491Z,101020.69
2018-04-07T13:10:02.568Z,101019.21
2018-04-07T13:12:31.497Z,101028.11
2018-04-07T13:14:59.864Z,101019.55
2018-04-07T13:17:28.999Z,101013.79
2018-04-07T13:19:57.644Z,101013.42
2018-04-07T13:22:26.133Z,101004.30
2018-04-07T13:24:54.512Z,101004.39
2018-04-07T13:27:22.800Z,101003.11
2018-04-07T13:29:51.072Z,100990.27
2018-04-07T13:32:19.373Z,100987.23
2018-04-07T13:34:47.650Z,100981.84
2018-04-07T13:37:15.928Z,100983.25
2018-04-07T13:39:44.499Z,100986.46
2018-04-07T13:42:12.824Z,100977.49
2018-04-07T13:44:41.864Z,100977.16
2018-04-07T13:47:10.144Z,100987.14
2018-04-07T13:49:38.437Z,100977.69
2018-04-07T13:52:06.728Z,100970.35
2018-04-07T13:54:35.400Z,100973.97
2018-04-07T13:57:03.817Z,100971.95
2018-04-07T13:59:32.860Z,100967.39
2018-04-07T14:02:01.252Z,100963.05
2018-04-07T14:04:29.630Z,100966.00
2018-04-07T14:06:58.630Z,100973.97
2018-04-07T14:09:27.065Z,100971.20
2018-04-07T14:11:55.337Z,100970.64
2018-04-07T14:14:24.396Z,100957.64
2018-04-07T14:16:52.761Z,100956.81
2018-04-07T14:19:20.986Z,100955.27
2018-04-07T14:21:50.323Z,100960.39
2018-04-07T14:24:18.608Z,100950.81
2018-04-07T14:26:46.893Z,100957.47
2018-04-07T14:29:15.247Z,100950.09
2018-04-07T14:31:43.520Z,100948.30
2018-04-07T14:34:11.795Z,100945.63
2018-04-07T14:36:40.088Z,100948.95
2018-04-07T14:39:08.368Z,100943.52
2018-04-07T14:41:36.906Z,100946.54
2018-04-07T14:44:05.953Z,100946.16
2018-04-07T14:46:34.236Z,100944.45
2018-04-07T14:49:02.603Z,100942.55
2018-04-07T14:51:30.970Z,100943.67
2018-04-07T14:53:59.249Z,100944.05
2018-04-07T14:56:27.548Z,100938.23
2018-04-07T14:58:55.824Z,100940.73
2018-04-07T15:01:24.099Z,100948.97
2018-04-07T15:03:52.429Z,100942.27
2018-04-07T15:06:21.472Z,100949.47
2018-04-07T15:08:49.778Z,100943.10
2018-04-07T15:11:18.061Z,100948.73
2018-04-07T15:13:46.339Z,100940.39
2018-04-07T15:16:14.676Z,100938.06
2018-04-07T15:18:42.956Z,100931.95
2018-04-07T15:21:12.045Z,100921.66
2018-04-07T15:23:40.347Z,100922.66
2018-04-07T15:26:09.576Z,100923.39
2018-04-07T15:28:38.780Z,100929.55
2018-04-07T15:31:07.180Z,100922.64
2018-04-07T15:33:36.232Z,100919.63
2018-04-07T15:36:04.516Z,100922.78
2018-04-07T15:38:33.119Z,100917.63
2018-04-07T15:41:01.443Z,100914.25
2018-04-07T15:43:29.729Z,100912.22
2018-04-07T15:45:58.005Z,100907.69
2018-04-07T15:48:26.516Z,100910.43
2018-04-07T15:50:56.272Z,100901.44
2018-04-07T15:53:25.299Z,100896.89
2018-04-07T15:55:53.728Z,100901.94
2018-04-07T15:58:22.788Z,100899.19
2018-04-07T16:00:51.060Z,100899.26
2018-04-07T16:03:19.366Z,100888.33
2018-04-07T16:05:48.038Z,100892.99
2018-04-07T16:08:16.327Z,100888.78
2018-04-07T16:10:44.616Z,100889.38
2018-04-07T16:13:12.906Z,100890.40
2018-04-07T16:15:42.008Z,100884.75
2018-04-07T16:18:11.875Z,100888.41
2018-04-07T16:20:40.148Z,100887.03
2018-04-07T16:23:08.465Z,100883.34
2018-04-07T16:25:36.749Z,100880.78
2018-04-07T16:28:05.830Z,100877.55
2018-04-07T16:30:34.116Z,100881.55
2018-04-07T16:33:02.412Z,100881.69
2018-04-07T16:35:32.224Z,100882.83
2018-04-07T16:38:02.283Z,100881.37
2018-04-07T16:40:30.564Z,100881.66
2018-04-07T16:42:58.876Z,100872.55
2018-04-07T16:45:27.224Z,100869.12
2018-04-07T16:47:55.488Z,100873.46
2018-04-07T16:50:23.803Z,100870.27
2018-04-07T16:52:52.104Z,100873.83
2018-04-07T16:55:21.144Z,100873.18
2018-04-07T16:57:49.484Z,100873.31
2018-04-07T17:00:18.546Z,100874.02
2018-04-07T17:02:46.840Z,100874.27
2018-04-07T17:05:15.982Z,100887.83
2018-04-07T17:07:45.050Z,100880.00
2018-04-07T17:10:14.089Z,100886.03
2018-04-07T17:12:43.122Z,100876.78
2018-04-07T17:15:11.378Z,100884.29
2018-04-07T17:17:39.648Z,100889.88
2018-04-07T17:20:07.943Z,100889.05
2018-04-07T17:22:36.971Z,100892.48
2018-04-07T17:25:06.060Z,100894.69
2018-04-07T17:27:35.159Z,100888.37
2018-04-07T17:30:03.431Z,100899.42
2018-04-07T17:32:32.506Z,100898.02
2018-04-07T17:35:01.800Z,100903.43
2018-04-07T17:37:31.026Z,100896.27
2018-04-07T17:39:59.304Z,100899.06
2018-04-07T17:42:27.624Z,100895.63
2018-04-07T17:44:55.920Z,100893.41
2018-04-07T17:47:24.237Z,100892.58
2018-04-07T17:49:53.774Z,100885.08
2018-04-07T17:52:22.725Z,100891.66
2018-04-07T17:54:51.037Z,100896.12
2018-04-07T17:57:20.871Z,100891.98
2018-04-07T17:59:49.140Z,100892.61
2018-04-07T18:02:17.530Z,100888.81
2018-04-07T18:04:46.340Z,100887.23
2018-04-07T18:07:16.057Z,100879.81
2018-04-07T18:09:45.957Z,100879.10
2018-04-07T18:12:14.239Z,100878.75
2018-04-07T18:14:42.918Z,100882.86
2018-04-07T18:17:11.212Z,100885.55
2018-04-07T18:19:40.572Z,100891.19
2018-04-07T18:22:09.609Z,100890.59
2018-04-07T18:24:38.635Z,100896.88
2018-04-07T18:27:06.995Z,100890.09
2018-04-07T18:29:35.285Z,100896.61
2018-04-07T18:32:03.608Z,100897.13
2018-04-07T18:34:31.873Z,100896.98
2018-04-07T18:37:01.485Z,100901.28
2018-04-07T18:39:30.836Z,100902.80
2018-04-07T18:41:59.146Z,100901.27
2018-04-07T18:44:27.431Z,100899.26
2018-04-07T18:46:57.416Z,100904.36
2018-04-07T18:49:25.717Z,100901.59
2018-04-07T18:51:54.721Z,100904.13
2018-04-07T18:54:23.808Z,100906.70
2018-04-07T18:56:52.930Z,100901.48
2018-04-07T18:59:22.044Z,100905.52
2018-04-07T19:01:50.350Z,100909.36
2018-04-07T19:04:19.356Z,100906.78
2018-04-07T19:06:49.208Z,100911.41
2018-04-07T19:09:18.306Z,100912.27
2018-04-07T19:11:47.639Z,100914.27
2018-04-07T19:14:15.932Z,100915.20
2018-04-07T19:16:44.291Z,100912.73
2018-04-07T19:19:13.358Z,100914.02
2018-04-07T19:21:42.753Z,100925.70
2018-04-07T19:24:11.812Z,100933.49
2018-04-07T19:26:40.097Z,100928.37
2018-04-07T19:29:09.209Z,100932.57
2018-04-07T19:31:37.532Z,100932.94
2018-04-07T19:34:05.810Z,100930.89
2018-04-07T19:36:34.619Z,100935.52
2018-04-07T19:39:03.199Z,100943.53
2018-04-07T19:41:31.504Z,100942.84
2018-04-07T19:44:00.688Z,100937.16
2018-04-07T19:46:29.845Z,100940.67
2018-04-07T19:48:58.888Z,100939.48
2018-04-07T19:51:27.206Z,100944.13
2018-04-07T19:53:57.703Z,100939.95
2018-04-07T19:56:26.001Z,100936.61
2018-04-07T19:58:54.293Z,100929.49
2018-04-07T20:01:24.079Z,100932.44
2018-04-07T20:03:52.384Z,100931.19
2018-04-07T20:06:22.004Z,100932.00
2018-04-07T20:08:51.612Z,100938.26
2018-04-07T20:11:20.746Z,100935.34
2018-04-07T20:13:49.065Z,100928.66
2018-04-07T20:16:17.888Z,100929.46
2018-04-07T20:18:46.837Z,100922.76
2018-04-07T20:21:15.119Z,100925.64
2018-04-07T20:23:43.511Z,100928.13
2018-04-07T20:26:11.797Z,100925.60
2018-04-07T20:28:42.578Z,100921.84
2018-04-07T20:31:11.583Z,100918.48
2018-04-07T20:33:40.667Z,100918.55
2018-04-07T20:36:10.034Z,100912.27
2018-04-07T20:38:39.458Z,100911.87
2018-04-07T20:41:07.761Z,100906.36
2018-04-07T20:43:36.078Z,100905.98
2018-04-07T20:46:04.416Z,100897.21
2018-04-07T20:48:32.803Z,100894.72
2018-04-07T20:51:01.110Z,100895.55
2018-04-07T20:53:29.530Z,100886.78
2018-04-07T20:55:57.930Z,100890.05
2018-04-07T20:58:27.363Z,100891.78
2018-04-07T21:00:55.657Z,100896.83
2018-04-07T21:03:23.952Z,100893.92
2018-04-07T21:05:53.363Z,100895.64
2018-04-07T21:08:22.391Z,100899.83
2018-04-07T21:10:52.738Z,100893.59
2018-04-07T21:13:21.940Z,100899.39
2018-04-07T21:15:51.453Z,100895.16
2018-04-07T21:18:20.521Z,100894.61
2018-04-07T21:20:50.195Z,100887.47
2018-04-07T21:23:19.403Z,100888.63
2018-04-07T21:25:48.926Z,100894.39
2018-04-07T21:28:17.204Z,100894.72
2018-04-07T21:30:45.509Z,100891.37
2018-04-07T21:33:14.201Z,100893.41
2018-04-07T21:35:44.523Z,100889.28
2018-04-07T21:38:12.903Z,100882.61
2018-04-07T21:40:41.979Z,100875.95
2018-04-07T21:43:10.278Z,100884.69
2018-04-07T21:45:39.367Z,100884.77
2018-04-07T21:48:07.659Z,100884.34
2018-04-07T21:50:36.632Z,100883.53
2018-04-07T21:53:05.950Z,100882.28
2018-04-07T21:55:35.101Z,100874.70
2018-04-07T21:58:03.498Z,100878.24
2018-04-07T22:00:33.309Z,100878.47
2018-04-07T22:03:01.900Z,100878.78
2018-04-07T22:05:32.004Z,100880.63
2018-04-07T22:08:01.196Z,100882.14
2018-04-07T22:10:30.273Z,100876.63
2018-04-07T22:12:58.561Z,100871.13
2018-04-07T22:15:26.984Z,100874.63
2018-04-07T22:17:56.059Z,100872.19
2018-04-07T22:20:24.342Z,100869.71
2018-04-07T22:22:53.440Z,100873.80
2018-04-07T22:25:21.718Z,100871.67
2018-04-07T22:27:50.005Z,100862.49
2018-04-07T22:30:18.336Z,100862.88
2018-04-07T22:32:46.912Z,100867.03
2018-04-07T22:35:15.197Z,100861.70
2018-04-07T22:37:45.052Z,100862.10
2018-04-07T22:40:13.337Z,100860.81
2018-04-07T22:42:43.216Z,100860.05
2018-04-07T22:45:12.641Z,100855.84
2018-04-07T22:47:41.178Z,100853.80
2018-04-07T22:50:10.557Z,100852.18
2018-04-07T22:52:38.888Z,100853.45
2018-04-07T22:55:08.852Z,100850.55
2018-04-07T22:57:37.134Z,100850.97
2018-04-07T23:00:05.425Z,100852.20
2018-04-07T23:02:33.739Z,100851.87
2018-04-07T23:05:02.784Z,100847.82
2018-04-07T23:07:31.071Z,100850.28
2018-04-07T23:09:59.437Z,100846.87
2018-04-07T23:12:27.720Z,100845.28
2018-04-07T23:14:56.840Z,100846.03
2018-04-07T23:17:25.136Z,100845.33
2018-04-07T23:19:55.086Z,100842.52
2018-04-07T23:22:23.375Z,100840.13
2018-04-07T23:24:52.571Z,100831.80
2018-04-07T23:27:21.691Z,100828.00
2018-04-07T23:29:50.403Z,100829.25
2018-04-07T23:32:18.762Z,100829.70
2018-04-07T23:34:47.251Z,100825.62
2018-04-07T23:37:15.548Z,100823.06
2018-04-07T23:39:44.664Z,100822.63
2018-04-07T23:42:13.749Z,100827.64
2018-04-07T23:44:43.001Z,100829.32
2018-04-07T23:47:11.386Z,100826.80
2018-04-07T23:49:39.846Z,100816.47
2018-04-07T23:52:08.146Z,100819.73
2018-04-07T23:54:36.409Z,100818.11
2018-04-07T23:57:04.900Z,100818.11
2018-04-07T23:59:33.925Z,100818.96
